Time;durP1;ratioP1;P1;durP2;ratioP2;P2;SDS_P1;SDS_P2;PMS_P1;PMS_P2;Temp;Humidity;BMP_temperature;BMP_pressure;BME280_temperature;BME280_humidity;BME280_pressure;Samples;Min_cycle;Max_cycle;Signal;HPM_P1;HPM_P2
2021/03/24 00:02:21;;;;;;;9.88;8.00;;;20.30;40.60;;;;;;5077537;28;20027;-57
2021/03/24 00:04:47;;;;;;;9.52;8.30;;;20.40;40.60;;;;;;5077770;28;20017;-62
2021/03/24 00:07:12;;;;;;;12.23;7.43;;;20.30;40.50;;;;;;5077127;28;20120;-59
2021/03/24 00:09:38;;;;;;;10.95;7.65;;;20.30;40.50;;;;;;5077237;28;20351;-57
2021/03/24 00:12:05;;;;;;;9.40;7.70;;;20.30;40.40;;;;;;5077206;28;20028;-60
2021/03/24 00:14:30;;;;;;;9.68;7.65;;;20.30;40.40;;;;;;5078065;28;20074;-58
2021/03/24 00:16:56;;;;;;;8.35;6.82;;;20.30;40.40;;;;;;5077410;28;20021;-60
2021/03/24 00:19:21;;;;;;;10.15;7.85;;;20.30;40.30;;;;;;5077399;28;20081;-58
2021/03/24 00:21:46;;;;;;;11.80;8.25;;;20.30;40.30;;;;;;5076803;28;20031;-59
2021/03/24 00:24:12;;;;;;;9.13;7.57;;;20.30;40.30;;;;;;5076944;28;20351;-61
2021/03/24 00:26:37;;;;;;;11.02;8.40;;;20.30;40.30;;;;;;5077020;28;20070;-58
2021/03/24 00:29:03;;;;;;;10.25;7.82;;;20.20;40.30;;;;;;5077429;28;20115;-60
2021/03/24 00:31:29;;;;;;;9.98;7.97;;;20.20;40.30;;;;;;5076990;28;20443;-59
2021/03/24 00:33:54;;;;;;;9.70;8.48;;;20.20;40.20;;;;;;5077191;28;20029;-54
2021/03/24 00:36:20;;;;;;;11.07;8.23;;;20.20;40.10;;;;;;5076611;28;20494;-56
2021/03/24 00:38:45;;;;;;;9.95;8.50;;;20.20;40.10;;;;;;5077090;28;20095;-58
2021/03/24 00:41:11;;;;;;;10.98;8.65;;;20.20;40.10;;;;;;5076959;28;20108;-57
2021/03/24 00:43:37;;;;;;;10.45;7.90;;;20.20;40.10;;;;;;5076590;28;20100;-58
2021/03/24 00:46:03;;;;;;;8.93;7.50;;;20.10;40.00;;;;;;5077039;28;20458;-56
2021/03/24 00:48:31;;;;;;;8.48;7.47;;;20.10;40.00;;;;;;5076919;28;20033;-60
2021/03/24 00:50:57;;;;;;;10.38;8.30;;;20.10;40.00;;;;;;5076466;28;20026;-59
2021/03/24 00:53:23;;;;;;;8.85;7.82;;;20.10;39.90;;;;;;5063023;28;20531;-56
2021/03/24 00:55:49;;;;;;;11.63;8.88;;;20.10;39.90;;;;;;5056688;28;20026;-60
2021/03/24 00:58:16;;;;;;;12.32;8.93;;;20.10;39.90;;;;;;5056571;28;20371;-60
2021/03/24 01:00:43;;;;;;;9.77;7.75;;;20.10;39.80;;;;;;5056275;28;20056;-57
2021/03/24 01:03:09;;;;;;;9.57;7.75;;;20.10;39.80;;;;;;5056407;28;20406;-57
2021/03/24 01:05:35;;;;;;;9.13;7.95;;;20.10;39.80;;;;;;5056337;28;20127;-55
2021/03/24 01:08:04;;;;;;;8.95;7.82;;;20.10;39.70;;;;;;5056317;28;20041;-58
2021/03/24 01:10:33;;;;;;;10.68;8.40;;;20.00;39.70;;;;;;5056357;28;20352;-55
2021/03/24 01:12:58;;;;;;;10.85;7.55;;;20.10;39.70;;;;;;5056415;28;20033;-56
2021/03/24 01:15:25;;;;;;;10.80;7.82;;;20.00;39.60;;;;;;5055982;28;20463;-57
2021/03/24 01:17:52;;;;;;;10.35;8.13;;;20.00;39.60;;;;;;5056143;28;20032;-58
2021/03/24 01:20:20;;;;;;;8.65;7.53;;;20.00;39.50;;;;;;5055908;28;20035;-61
2021/03/24 01:22:45;;;;;;;10.10;7.95;;;20.00;39.50;;;;;;5056556;28;20100;-58
2021/03/24 01:25:11;;;;;;;8.95;7.45;;;20.00;39.50;;;;;;5038143;28;20053;-61
2021/03/24 01:27:37;;;;;;;7.38;6.60;;;20.00;39.50;;;;;;5055476;28;20128;-56
2021/03/24 01:30:05;;;;;;;7.85;6.85;;;20.00;39.50;;;;;;5056129;28;20025;-59
2021/03/24 01:32:30;;;;;;;8.85;6.78;;;20.00;39.40;;;;;;5055696;28;20204;-56
2021/03/24 01:34:56;;;;;;;7.75;6.97;;;19.90;39.40;;;;;;5056238;28;20032;-55
2021/03/24 01:37:21;;;;;;;7.82;6.82;;;20.00;39.40;;;;;;5056242;28;20029;-61
2021/03/24 01:39:47;;;;;;;8.32;6.88;;;19.90;39.30;;;;;;5055762;28;20021;-56
2021/03/24 01:42:13;;;;;;;8.43;6.70;;;19.90;39.30;;;;;;5055692;28;20033;-59
2021/03/24 01:45:06;;;;;;;8.88;6.43;;;19.90;39.30;;;;;;5055387;28;20454;-53
2021/03/24 01:47:32;;;;;;;8.48;6.85;;;19.90;39.30;;;;;;5055606;28;20048;-59
2021/03/24 01:49:58;;;;;;;7.25;6.53;;;19.90;39.30;;;;;;5055941;28;20062;-60
2021/03/24 01:52:25;;;;;;;9.40;6.88;;;19.80;39.20;;;;;;5055988;28;20114;-58
2021/03/24 01:54:52;;;;;;;8.15;6.65;;;19.80;39.20;;;;;;5055810;28;20043;-57
2021/03/24 01:57:24;;;;;;;9.68;6.93;;;19.80;39.20;;;;;;5055486;28;20067;-59
2021/03/24 01:59:53;;;;;;;9.90;6.97;;;19.80;39.20;;;;;;5055280;28;20055;-58
2021/03/24 02:02:24;;;;;;;7.93;6.90;;;19.80;39.20;;;;;;5055338;28;20116;-57
2021/03/24 02:04:51;;;;;;;7.70;6.90;;;19.80;39.20;;;;;;5054774;28;20021;-59
2021/03/24 02:07:23;;;;;;;8.65;7.22;;;19.80;39.20;;;;;;5055464;28;20024;-56
2021/03/24 02:10:21;;;;;;;8.27;6.50;;;19.80;39.10;;;;;;5055213;28;20057;-56
2021/03/24 02:13:08;;;;;;;8.00;7.18;;;19.80;39.20;;;;;;5055152;28;20352;-58
2021/03/24 02:15:39;;;;;;;8.20;6.53;;;19.80;39.10;;;;;;5054996;28;20060;-56
2021/03/24 02:18:06;;;;;;;8.95;6.80;;;19.70;39.00;;;;;;5054776;28;20035;-57
2021/03/24 02:20:55;;;;;;;8.43;7.43;;;19.70;39.00;;;;;;5055168;28;20031;-59
2021/03/24 02:23:26;;;;;;;7.38;6.45;;;19.70;39.00;;;;;;5055141;28;20075;-57
2021/03/24 02:26:15;;;;;;;9.25;7.30;;;19.70;38.90;;;;;;5054809;28;20352;-57
2021/03/24 02:28:43;;;;;;;7.95;6.57;;;19.70;39.00;;;;;;4987495;28;20084;-60
2021/03/24 02:31:12;;;;;;;7.28;6.55;;;19.70;38.90;;;;;;5054511;28;20036;-57
2021/03/24 02:33:41;;;;;;;7.35;6.57;;;19.70;38.90;;;;;;5055000;28;20032;-60
2021/03/24 02:36:11;;;;;;;7.85;6.35;;;19.60;38.90;;;;;;5055113;28;20021;-60
2021/03/24 02:38:39;;;;;;;10.65;6.10;;;19.60;38.90;;;;;;5054476;28;20029;-55
2021/03/24 02:41:06;;;;;;;8.02;6.57;;;19.70;38.90;;;;;;5054614;28;20116;-54
2021/03/24 02:43:34;;;;;;;7.97;7.03;;;19.60;38.80;;;;;;5054100;28;20036;-58
2021/03/24 02:46:03;;;;;;;7.40;6.65;;;19.60;38.80;;;;;;5054819;28;20028;-57
2021/03/24 02:48:32;;;;;;;8.73;7.40;;;19.60;38.80;;;;;;5054720;28;20444;-58
2021/03/24 02:51:00;;;;;;;8.93;7.28;;;19.60;38.80;;;;;;5054352;28;20029;-59
2021/03/24 02:53:28;;;;;;;10.82;7.65;;;19.60;38.80;;;;;;5054710;28;20297;-57
2021/03/24 02:55:58;;;;;;;10.70;8.18;;;19.60;38.80;;;;;;5054534;28;20017;-59
2021/03/24 02:58:24;;;;;;;8.57;7.32;;;19.60;38.80;;;;;;5054529;28;20093;-57
2021/03/24 03:00:50;;;;;;;7.72;6.93;;;19.60;38.80;;;;;;5055140;28;20053;-54
2021/03/24 03:03:25;;;;;;;8.52;7.60;;;19.50;38.70;;;;;;5054200;28;20471;-59
2021/03/24 03:05:56;;;;;;;8.88;7.18;;;19.60;38.70;;;;;;5054312;28;20029;-59
2021/03/24 03:08:28;;;;;;;8.93;7.47;;;19.50;38.70;;;;;;5054565;28;20077;-57
2021/03/24 03:11:08;;;;;;;9.15;8.02;;;19.50;38.80;;;;;;5054185;28;20036;-58
2021/03/24 03:13:55;;;;;;;8.90;8.00;;;19.50;38.80;;;;;;5054628;28;20040;-60
2021/03/24 03:16:34;;;;;;;9.88;8.23;;;19.50;38.80;;;;;;5056080;28;20025;-58
2021/03/24 03:19:09;;;;;;;8.02;7.22;;;19.50;38.80;;;;;;5040678;28;20013;-61
2021/03/24 03:21:51;;;;;;;9.27;7.95;;;19.50;38.80;;;;;;5058458;28;20017;-56
2021/03/24 03:24:20;;;;;;;10.40;7.22;;;19.50;38.80;;;;;;5058301;28;20082;-57
2021/03/24 03:26:49;;;;;;;9.02;7.82;;;19.40;38.70;;;;;;5058348;28;20025;-58
2021/03/24 03:29:17;;;;;;;8.80;7.50;;;19.40;38.70;;;;;;5057741;28;20037;-56
2021/03/24 03:31:48;;;;;;;7.85;7.05;;;19.40;38.70;;;;;;5057983;28;20474;-56
2021/03/24 03:34:17;;;;;;;9.05;7.45;;;19.40;38.70;;;;;;5058191;28;20036;-55
2021/03/24 03:36:46;;;;;;;7.97;7.05;;;19.40;38.70;;;;;;5057719;28;20037;-60
2021/03/24 03:39:15;;;;;;;7.53;6.78;;;19.40;38.70;;;;;;5040844;28;20032;-59
2021/03/24 03:41:42;;;;;;;8.32;7.45;;;19.40;38.70;;;;;;5057832;28;20460;-59
2021/03/24 03:44:10;;;;;;;7.82;6.88;;;19.40;38.70;;;;;;5058092;28;20068;-59
2021/03/24 03:46:41;;;;;;;7.55;6.75;;;19.40;38.60;;;;;;5058044;28;20032;-56
2021/03/24 03:49:07;;;;;;;7.03;6.32;;;19.40;38.70;;;;;;5057916;28;20029;-59
2021/03/24 03:51:51;;;;;;;6.97;6.28;;;19.30;38.60;;;;;;5057763;28;20017;-54
2021/03/24 03:54:33;;;;;;;7.90;6.93;;;19.40;38.70;;;;;;5057461;28;20108;-54
2021/03/24 03:57:20;;;;;;;7.40;6.38;;;19.40;38.60;;;;;;5058231;28;20021;-58
2021/03/24 04:00:03;;;;;;;6.43;5.60;;;19.30;38.60;;;;;;5057711;28;20352;-57
2021/03/24 04:02:41;;;;;;;6.55;5.95;;;19.30;38.60;;;;;;5057858;28;20055;-57
2021/03/24 04:05:11;;;;;;;6.25;5.65;;;19.30;38.60;;;;;;5057529;28;20024;-58
2021/03/24 04:07:42;;;;;;;6.25;5.65;;;19.30;38.60;;;;;;5057600;28;20036;-58
2021/03/24 04:10:09;;;;;;;5.88;5.28;;;19.30;38.60;;;;;;5057774;28;20025;-60
2021/03/24 04:12:39;;;;;;;6.43;5.78;;;19.30;38.60;;;;;;5057483;28;20120;-57
2021/03/24 04:15:13;;;;;;;5.40;4.90;;;19.30;38.60;;;;;;5057082;28;20056;-59
2021/03/24 04:17:51;;;;;;;6.30;5.25;;;19.20;38.50;;;;;;5057294;28;20423;-56
2021/03/24 04:20:20;;;;;;;5.40;4.90;;;19.30;38.60;;;;;;5057028;28;20064;-59
2021/03/24 04:22:49;;;;;;;5.40;4.90;;;19.20;38.50;;;;;;5057355;28;20075;-60
2021/03/24 04:25:47;;;;;;;6.15;5.55;;;19.20;38.60;;;;;;5057194;28;20021;-57
2021/03/24 04:28:15;;;;;;;5.28;4.72;;;19.20;38.60;;;;;;5056091;28;20482;-61
2021/03/24 04:30:47;;;;;;;5.55;5.05;;;19.20;38.60;;;;;;5057287;28;20029;-57
2021/03/24 04:33:13;;;;;;;5.53;5.00;;;19.20;38.60;;;;;;5057298;28;20163;-56
2021/03/24 04:35:40;;;;;;;6.35;5.75;;;19.20;38.60;;;;;;5057005;28;20091;-58
2021/03/24 04:38:21;;;;;;;6.60;5.80;;;19.20;38.60;;;;;;5056904;28;20129;-59
2021/03/24 04:40:50;;;;;;;6.55;5.70;;;19.20;38.60;;;;;;5056839;28;20021;-58
2021/03/24 04:43:22;;;;;;;6.40;5.80;;;19.20;38.60;;;;;;5056650;28;20510;-59
2021/03/24 04:46:11;;;;;;;6.30;5.70;;;19.20;38.60;;;;;;5057201;28;20032;-56
2021/03/24 04:48:44;;;;;;;5.60;5.10;;;19.20;38.60;;;;;;5056593;28;20108;-58
2021/03/24 04:51:21;;;;;;;6.70;6.00;;;19.20;38.60;;;;;;5056790;28;20167;-60
2021/03/24 04:53:52;;;;;;;6.43;5.82;;;19.20;38.60;;;;;;5056438;28;20025;-58
2021/03/24 04:56:20;;;;;;;5.75;5.15;;;19.10;38.60;;;;;;5056399;28;20017;-56
2021/03/24 04:58:52;;;;;;;6.35;5.75;;;19.10;38.60;;;;;;5056741;28;20029;-60
2021/03/24 05:01:40;;;;;;;5.70;5.20;;;19.10;38.60;;;;;;5056468;28;20021;-57
2021/03/24 05:04:15;;;;;;;5.88;5.38;;;19.10;38.60;;;;;;5056244;28;20439;-61
2021/03/24 05:06:50;;;;;;;8.07;5.45;;;19.10;38.60;;;;;;5056860;28;20032;-57
2021/03/24 05:09:16;;;;;;;5.90;5.40;;;19.10;38.60;;;;;;5056849;28;20029;-57
2021/03/24 05:12:09;;;;;;;5.68;5.18;;;19.10;38.60;;;;;;5056043;28;20040;-57
2021/03/24 05:14:56;;;;;;;5.70;5.20;;;19.10;38.60;;;;;;5056376;28;20028;-59
2021/03/24 05:17:26;;;;;;;5.45;4.95;;;19.10;38.60;;;;;;5056723;28;20029;-58
2021/03/24 05:19:58;;;;;;;7.03;5.45;;;19.00;39.20;;;;;;5066735;28;20029;-57
2021/03/24 05:22:30;;;;;;;6.68;5.72;;;19.00;38.50;;;;;;5056350;28;20359;-58
2021/03/24 05:25:05;;;;;;;5.00;4.60;;;19.00;38.40;;;;;;5056997;28;20024;-58
2021/03/24 05:27:39;;;;;;;5.90;5.35;;;19.00;38.40;;;;;;5055929;28;20118;-60
2021/03/24 05:30:31;;;;;;;5.68;5.18;;;19.00;38.50;;;;;;5055791;28;20029;-59
2021/03/24 05:33:06;;;;;;;5.80;5.22;;;19.00;38.40;;;;;;5055575;28;20040;-61
2021/03/24 05:35:50;;;;;;;5.60;5.10;;;19.00;38.40;;;;;;5055739;28;20540;-57
2021/03/24 05:38:22;;;;;;;5.70;5.20;;;19.00;38.40;;;;;;5055983;28;20112;-58
2021/03/24 05:41:16;;;;;;;5.55;5.05;;;19.00;38.40;;;;;;5055766;28;20025;-57
2021/03/24 05:44:08;;;;;;;5.55;5.05;;;19.00;38.40;;;;;;5056277;28;20040;-58
2021/03/24 05:47:05;;;;;;;5.35;4.90;;;19.00;38.40;;;;;;5060612;28;20079;-56
2021/03/24 05:49:44;;;;;;;6.07;5.00;;;18.90;38.40;;;;;;5075451;28;20046;-57
2021/03/24 05:52:54;;;;;;;5.10;4.70;;;18.90;38.40;;;;;;5058128;28;20021;-59
2021/03/24 05:55:48;;;;;;;5.15;4.65;;;18.90;38.40;;;;;;5060987;28;20374;-55
2021/03/24 05:58:27;;;;;;;5.00;4.60;;;18.90;38.40;;;;;;5055608;28;20104;-60
2021/03/24 06:01:14;;;;;;;4.25;3.95;;;18.90;38.40;;;;;;5062847;28;20024;-58
2021/03/24 06:04:15;;;;;;;5.00;4.50;;;18.90;38.40;;;;;;5075067;28;20432;-57
2021/03/24 06:07:02;;;;;;;4.25;3.95;;;18.90;38.40;;;;;;5075437;28;20048;-59
2021/03/24 06:10:18;;;;;;;5.38;4.93;;;18.90;38.30;;;;;;5067466;28;20044;-58
2021/03/24 06:13:26;;;;;;;4.38;3.92;;;18.90;38.60;;;;;;5049630;28;20095;-62
2021/03/24 06:16:14;;;;;;;6.65;5.10;;;18.80;38.40;;;;;;5008791;28;20087;-58
2021/03/24 06:19:13;;;;;;;12.10;5.60;;;18.80;38.50;;;;;;5055331;28;20364;-53
2021/03/24 06:22:01;;;;;;;11.00;5.15;;;18.80;39.20;;;;;;5055348;28;20095;-59
2021/03/24 06:24:44;;;;;;;10.25;6.15;;;18.80;39.20;;;;;;5055593;28;20025;-58
2021/03/24 06:27:33;;;;;;;12.57;5.57;;;18.70;39.10;;;;;;5054848;28;20025;-52
2021/03/24 06:30:40;;;;;;;7.65;4.72;;;18.70;39.10;;;;;;5037171;28;20040;-52
2021/03/24 06:33:18;;;;;;;9.88;5.05;;;18.70;39.10;;;;;;5054874;28;20070;-56
2021/03/24 06:36:24;;;;;;;10.35;5.53;;;18.60;39.20;;;;;;5055412;28;20032;-58
2021/03/24 06:39:22;;;;;;;16.90;5.88;;;18.60;39.60;;;;;;5055092;28;20104;-53
2021/03/24 06:42:24;;;;;;;10.43;5.32;;;18.60;39.70;;;;;;5010871;28;20052;-55
2021/03/24 06:45:21;;;;;;;16.48;6.00;;;18.60;39.90;;;;;;5055490;28;20025;-61
2021/03/24 06:47:54;;;;;;;17.15;6.82;;;18.60;39.90;;;;;;5054833;28;20041;-60
2021/03/24 06:50:32;;;;;;;23.40;6.60;;;18.70;40.00;;;;;;5054769;28;20028;-54
2021/03/24 06:56:33;;;;;;;10.32;5.18;;;18.70;40.30;;;;;;5124049;23;20071;-63
2021/03/24 06:59:26;;;;;;;14.63;4.75;;;18.60;40.20;;;;;;5054648;28;20029;-62
2021/03/24 07:02:29;;;;;;;9.30;4.83;;;18.70;40.30;;;;;;5054448;28;20359;-63
2021/03/24 07:05:22;;;;;;;22.33;4.80;;;18.70;40.30;;;;;;5055015;28;20064;-59
2021/03/24 07:08:10;;;;;;;10.43;4.23;;;18.70;40.50;;;;;;5054503;28;20029;-58
2021/03/24 07:10:50;;;;;;;9.98;4.60;;;18.70;40.60;;;;;;5054393;28;20033;-59
2021/03/24 07:13:37;;;;;;;8.57;3.60;;;18.70;40.50;;;;;;5054350;28;20530;-57
2021/03/24 07:16:16;;;;;;;12.43;4.53;;;18.80;40.40;;;;;;5054042;28;20040;-57
2021/03/24 07:19:19;;;;;;;11.13;4.40;;;18.80;40.40;;;;;;5054515;28;20442;-55
2021/03/24 07:22:11;;;;;;;6.75;3.95;;;18.90;40.50;;;;;;5053950;28;20324;-56
2021/03/24 07:25:01;;;;;;;7.40;3.90;;;18.90;40.40;;;;;;5054492;28;20032;-55
2021/03/24 07:27:42;;;;;;;7.10;4.05;;;19.00;40.40;;;;;;5054582;28;20025;-56
2021/03/24 07:30:28;;;;;;;9.73;4.22;;;19.00;40.40;;;;;;5054528;28;20346;-57
2021/03/24 07:33:11;;;;;;;7.30;3.40;;;19.00;40.30;;;;;;5054319;28;20131;-57
2021/03/24 07:35:58;;;;;;;10.00;3.70;;;19.10;40.30;;;;;;5054442;28;20036;-57
2021/03/24 07:38:45;;;;;;;7.50;4.15;;;19.10;40.30;;;;;;5053656;28;20035;-58
2021/03/24 07:41:35;;;;;;;11.35;4.22;;;19.20;40.40;;;;;;5054389;28;20150;-58
2021/03/24 07:44:39;;;;;;;6.75;3.88;;;19.20;40.30;;;;;;5054417;28;20021;-58
2021/03/24 07:47:17;;;;;;;7.95;3.47;;;19.20;40.30;;;;;;5054172;28;20091;-57
2021/03/24 07:50:15;;;;;;;5.63;4.53;;;19.30;40.40;;;;;;5054103;28;20025;-57
2021/03/24 07:52:57;;;;;;;6.85;4.05;;;19.30;40.40;;;;;;5054049;28;20025;-58
2021/03/24 07:55:34;;;;;;;8.63;5.00;;;19.30;40.50;;;;;;5054088;28;20455;-59
2021/03/24 07:58:41;;;;;;;10.80;5.85;;;19.40;40.70;;;;;;5054301;28;20043;-58
2021/03/24 08:01:21;;;;;;;14.85;7.53;;;19.50;40.80;;;;;;5053587;28;20048;-58
2021/03/24 08:04:16;;;;;;;17.30;10.05;;;19.50;40.80;;;;;;5056357;28;20021;-58
2021/03/24 08:07:21;;;;;;;16.95;11.80;;;19.50;40.60;;;;;;5058107;28;20083;-57
2021/03/24 08:10:12;;;;;;;21.80;14.60;;;19.50;40.50;;;;;;5046535;28;20049;-55
2021/03/24 08:13:07;;;;;;;18.23;12.85;;;19.40;40.40;;;;;;5057613;28;20036;-55
2021/03/24 08:15:53;;;;;;;16.00;11.60;;;19.40;40.50;;;;;;5056004;28;20039;-62
2021/03/24 08:18:58;;;;;;;18.52;11.57;;;19.50;40.60;;;;;;5057016;28;20108;-58
2021/03/24 08:21:47;;;;;;;16.05;9.77;;;19.50;40.70;;;;;;5056846;28;20090;-55
2021/03/24 08:24:20;;;;;;;30.02;11.57;;;19.60;40.70;;;;;;5057449;28;20020;-57
2021/03/24 08:26:50;;;;;;;22.92;10.77;;;19.60;40.80;;;;;;5057320;28;20025;-59
2021/03/24 08:29:38;;;;;;;18.42;10.20;;;19.60;40.90;;;;;;5056921;28;20413;-56
2021/03/24 08:32:28;;;;;;;16.40;9.50;;;19.70;41.10;;;;;;5057404;28;20104;-54
2021/03/24 08:35:25;;;;;;;20.42;10.80;;;19.70;41.40;;;;;;5057387;28;20052;-58
2021/03/24 08:38:07;;;;;;;22.70;9.15;;;19.80;41.60;;;;;;5056735;28;20027;-57
2021/03/24 08:40:45;;;;;;;15.98;8.95;;;19.80;41.50;;;;;;5056731;28;20390;-56
2021/03/24 08:44:07;;;;;;;14.73;8.32;;;19.90;41.50;;;;;;5056770;28;20078;-57
2021/03/24 08:47:01;;;;;;;12.40;7.63;;;19.90;41.50;;;;;;4995561;28;20038;-55
2021/03/24 08:49:30;;;;;;;17.05;7.28;;;19.90;41.50;;;;;;4995603;28;20440;-58
2021/03/24 08:52:04;;;;;;;14.93;8.13;;;19.90;41.50;;;;;;5037042;28;20447;-52
2021/03/24 08:55:07;;;;;;;14.55;7.72;;;20.00;41.60;;;;;;5056634;28;20352;-58
2021/03/24 08:57:40;;;;;;;11.32;8.02;;;20.00;41.60;;;;;;5056382;28;20025;-57
2021/03/24 09:00:11;;;;;;;15.80;7.63;;;20.10;42.30;;;;;;5056543;28;20021;-58
2021/03/24 09:02:49;;;;;;;9.27;7.57;;;20.10;41.70;;;;;;5056628;28;20028;-57
2021/03/24 09:05:27;;;;;;;20.42;8.55;;;20.10;41.70;;;;;;5056557;28;20033;-56
2021/03/24 09:08:08;;;;;;;12.05;8.25;;;20.20;41.80;;;;;;5056456;28;20438;-58
2021/03/24 09:10:48;;;;;;;22.42;9.20;;;20.20;41.80;;;;;;5055979;28;20525;-57
2021/03/24 09:13:58;;;;;;;10.63;7.65;;;20.30;41.90;;;;;;5056300;28;20320;-58
2021/03/24 09:16:53;;;;;;;15.77;8.25;;;20.30;41.80;;;;;;5056652;28;20068;-58
2021/03/24 09:19:56;;;;;;;10.57;7.68;;;20.30;41.80;;;;;;5055948;28;20037;-57
2021/03/24 09:22:30;;;;;;;14.52;8.05;;;20.40;41.80;;;;;;5025468;28;20132;-57
2021/03/24 09:25:07;;;;;;;14.32;8.75;;;20.40;41.80;;;;;;5055469;28;20382;-59
2021/03/24 09:27:38;;;;;;;14.30;8.77;;;20.40;41.80;;;;;;5056182;28;20029;-53
2021/03/24 09:30:38;;;;;;;12.48;7.90;;;20.50;41.80;;;;;;5055933;28;20029;-56
2021/03/24 09:33:36;;;;;;;10.20;7.63;;;20.50;41.80;;;;;;5056301;28;20363;-56
2021/03/24 09:36:27;;;;;;;13.20;6.80;;;20.50;41.80;;;;;;5056191;28;20443;-57
2021/03/24 09:38:54;;;;;;;8.50;6.22;;;20.60;41.80;;;;;;5055909;28;20091;-56
2021/03/24 09:41:29;;;;;;;11.88;6.75;;;20.60;41.80;;;;;;5056097;28;20024;-56
2021/03/24 09:44:02;;;;;;;12.80;7.38;;;20.60;41.80;;;;;;5056066;28;20033;-57
2021/03/24 09:46:41;;;;;;;11.27;7.93;;;20.70;41.90;;;;;;5055752;28;20029;-58
2021/03/24 09:49:38;;;;;;;14.65;8.45;;;20.70;41.80;;;;;;5055716;28;20346;-57
2021/03/24 09:52:21;;;;;;;10.07;7.28;;;20.70;41.90;;;;;;5055768;28;20038;-55
2021/03/24 09:55:03;;;;;;;10.23;7.07;;;20.70;41.90;;;;;;5054420;28;20048;-57
2021/03/24 09:57:56;;;;;;;11.40;6.70;;;20.70;41.90;;;;;;5054847;28;20367;-57
2021/03/24 10:00:24;;;;;;;10.18;7.18;;;20.80;42.00;;;;;;5052494;28;20033;-57
2021/03/24 10:03:27;;;;;;;8.85;6.75;;;20.80;42.10;;;;;;5055142;28;20028;-57
2021/03/24 10:05:58;;;;;;;11.25;6.75;;;20.80;42.10;;;;;;5055387;28;20109;-57
2021/03/24 10:08:45;;;;;;;12.63;7.63;;;20.80;42.10;;;;;;5054939;28;20386;-56
2021/03/24 10:11:21;;;;;;;10.35;7.78;;;20.80;42.10;;;;;;5054752;28;20477;-55
2021/03/24 10:13:51;;;;;;;15.27;7.72;;;20.90;42.20;;;;;;5055322;28;20075;-58
2021/03/24 10:16:28;;;;;;;10.98;7.10;;;21.00;42.30;;;;;;5055428;28;20044;-59
2021/03/24 10:19:14;;;;;;;16.63;8.20;;;20.90;42.20;;;;;;5054875;28;20029;-59
2021/03/24 10:21:52;;;;;;;14.48;8.13;;;21.00;42.30;;;;;;5054534;28;20037;-58
2021/03/24 10:24:42;;;;;;;13.70;7.75;;;21.00;42.20;;;;;;5055501;28;20393;-58
2021/03/24 10:27:12;;;;;;;14.23;6.40;;;21.00;42.30;;;;;;5025617;28;20455;-58
2021/03/24 10:30:07;;;;;;;11.02;6.80;;;21.00;42.40;;;;;;5054657;28;20521;-58
2021/03/24 10:32:42;;;;;;;12.35;7.90;;;21.00;42.40;;;;;;5054577;28;20060;-61
2021/03/24 10:35:31;;;;;;;16.52;8.50;;;21.10;42.60;;;;;;5054809;28;20029;-57
2021/03/24 10:38:19;;;;;;;20.77;8.23;;;21.10;42.60;;;;;;5054586;28;20017;-57
2021/03/24 10:40:51;;;;;;;16.75;9.75;;;21.10;42.60;;;;;;5054883;28;20106;-61
2021/03/24 10:43:27;;;;;;;18.50;9.20;;;21.10;42.50;;;;;;5054919;28;20109;-58
2021/03/24 10:46:10;;;;;;;15.13;8.68;;;21.10;42.50;;;;;;5054981;28;20350;-59
2021/03/24 10:48:48;;;;;;;14.98;8.25;;;21.10;42.40;;;;;;5054483;28;20114;-58
2021/03/24 10:51:38;;;;;;;11.52;7.78;;;21.10;42.40;;;;;;5054495;28;20029;-59
2021/03/24 10:54:25;;;;;;;17.90;7.95;;;21.10;42.40;;;;;;5054628;28;20454;-59
2021/03/24 10:57:11;;;;;;;9.43;6.93;;;21.10;42.40;;;;;;5054946;28;20037;-61
2021/03/24 10:59:48;;;;;;;12.88;7.70;;;21.20;42.50;;;;;;5054499;28;20057;-60
2021/03/24 11:02:39;;;;;;;11.90;7.03;;;21.20;42.40;;;;;;5055105;28;20111;-59
2021/03/24 11:05:13;;;;;;;12.38;6.85;;;21.20;42.40;;;;;;5054632;28;20053;-59
2021/03/24 11:08:05;;;;;;;12.15;6.97;;;21.20;42.40;;;;;;5054085;28;20443;-60
2021/03/24 11:10:52;;;;;;;8.98;5.95;;;21.20;42.40;;;;;;5053440;28;20036;-60
2021/03/24 11:13:22;;;;;;;10.90;6.00;;;21.20;42.40;;;;;;5054906;28;20021;-55
2021/03/24 11:15:52;;;;;;;11.70;6.00;;;21.20;42.40;;;;;;5054622;28;20025;-56
2021/03/24 11:18:25;;;;;;;8.00;5.93;;;21.20;42.40;;;;;;5054557;28;20124;-60
2021/03/24 11:20:55;;;;;;;10.65;5.82;;;21.20;42.40;;;;;;5054436;28;20359;-59
2021/03/24 11:23:41;;;;;;;8.57;5.15;;;21.20;42.40;;;;;;5054140;28;20465;-60
2021/03/24 11:26:31;;;;;;;7.97;5.30;;;21.20;42.30;;;;;;5054373;28;20028;-59
2021/03/24 11:29:00;;;;;;;8.80;5.05;;;21.20;42.30;;;;;;5054822;28;20127;-57
2021/03/24 11:31:47;;;;;;;8.40;4.95;;;21.20;42.30;;;;;;5054352;28;20036;-56
2021/03/24 11:34:20;;;;;;;8.73;5.55;;;21.20;42.30;;;;;;5054503;28;20036;-57
2021/03/24 11:36:56;;;;;;;9.52;4.72;;;21.20;42.30;;;;;;5054646;28;20123;-60
2021/03/24 11:39:33;;;;;;;7.55;4.45;;;21.30;42.30;;;;;;5058360;28;20417;-59
2021/03/24 11:42:15;;;;;;;7.88;4.85;;;21.20;42.20;;;;;;5058110;28;20020;-58
2021/03/24 11:44:43;;;;;;;9.27;5.80;;;21.30;42.20;;;;;;5058271;28;20021;-59
2021/03/24 11:48:00;;;;;;;9.48;6.57;;;21.30;42.20;;;;;;5057759;28;20090;-60
2021/03/24 11:50:40;;;;;;;12.40;7.22;;;21.30;42.20;;;;;;4998637;28;20041;-58
2021/03/24 11:53:17;;;;;;;10.45;5.68;;;21.20;41.90;;;;;;5057889;28;20386;-56
2021/03/24 11:55:50;;;;;;;9.50;5.53;;;21.30;42.10;;;;;;5057605;28;20049;-58
2021/03/24 11:58:46;;;;;;;8.15;6.07;;;21.30;42.20;;;;;;5058312;28;20104;-59
2021/03/24 12:01:30;;;;;;;10.88;5.43;;;21.30;42.20;;;;;;5057951;28;20025;-57
2021/03/24 12:04:01;;;;;;;;;;;21.30;42.30;;;;;;5058228;28;20350;-59
2021/03/24 12:06:51;;;;;;;12.65;7.13;;;21.30;42.40;;;;;;5058072;28;19904;-63
2021/03/24 12:09:30;;;;;;;10.57;6.25;;;21.30;42.30;;;;;;5057644;28;20032;-59
2021/03/24 12:12:14;;;;;;;12.85;6.50;;;21.30;42.60;;;;;;5057567;28;20025;-61
2021/03/24 12:14:43;;;;;;;15.23;7.30;;;21.30;42.50;;;;;;5057765;28;20025;-59
2021/03/24 12:17:46;;;;;;;9.02;5.82;;;21.30;42.30;;;;;;5057444;28;20321;-60
2021/03/24 12:20:19;;;;;;;9.18;4.82;;;21.30;42.50;;;;;;4979688;28;20026;-59
2021/03/24 12:22:53;;;;;;;10.30;5.30;;;21.30;42.50;;;;;;4995667;28;20480;-59
2021/03/24 12:25:30;;;;;;;7.03;4.28;;;21.30;42.60;;;;;;5031067;28;20132;-60
2021/03/24 12:28:00;;;;;;;5.05;4.28;;;21.30;42.60;;;;;;5057126;28;20132;-60
2021/03/24 12:30:37;;;;;;;5.95;4.18;;;21.30;42.60;;;;;;5056955;28;20029;-59
2021/03/24 12:33:15;;;;;;;8.27;4.20;;;21.40;42.70;;;;;;5057178;28;20025;-59
2021/03/24 12:35:43;;;;;;;10.25;4.45;;;21.40;42.70;;;;;;5057490;28;20079;-60
2021/03/24 12:38:17;;;;;;;6.15;3.92;;;21.40;42.70;;;;;;5057067;28;20025;-60
2021/03/24 12:41:02;;;;;;;5.07;3.75;;;21.40;42.70;;;;;;5057119;28;20021;-60
2021/03/24 12:43:39;;;;;;;6.65;3.85;;;21.40;42.70;;;;;;5057025;28;20312;-59
2021/03/24 12:46:06;;;;;;;6.15;4.13;;;21.40;42.70;;;;;;5057086;28;20029;-60
2021/03/24 12:48:35;;;;;;;5.78;4.20;;;21.40;42.70;;;;;;5056301;28;20108;-60
2021/03/24 12:51:13;;;;;;;7.13;3.10;;;21.40;42.70;;;;;;5057386;28;20043;-60
2021/03/24 12:53:45;;;;;;;4.93;3.33;;;21.40;42.70;;;;;;5056724;28;20521;-60
2021/03/24 12:56:26;;;;;;;6.82;3.60;;;21.40;42.70;;;;;;5057075;28;20041;-59
2021/03/24 12:58:55;;;;;;;5.05;3.60;;;21.40;42.70;;;;;;5056487;28;20063;-59
2021/03/24 13:01:29;;;;;;;3.80;3.40;;;21.40;42.70;;;;;;5056560;28;20032;-60
2021/03/24 13:04:10;;;;;;;;;;;21.50;42.70;;;;;;5057214;28;20401;-61
2021/03/24 13:07:03;;;;;;;7.00;3.25;;;21.50;42.70;;;;;;5056949;28;19909;-60
2021/03/24 13:09:43;;;;;;;4.32;3.15;;;21.40;42.60;;;;;;5056329;28;20029;-60
2021/03/24 13:12:15;;;;;;;5.95;3.40;;;21.40;42.70;;;;;;5056490;28;20036;-60
2021/03/24 13:15:07;;;;;;;4.15;3.30;;;21.40;42.60;;;;;;5056496;28;20061;-59
2021/03/24 13:18:03;;;;;;;6.07;3.50;;;21.40;42.60;;;;;;5056253;28;20339;-59
2021/03/24 13:20:51;;;;;;;5.47;3.13;;;21.50;42.60;;;;;;5056388;28;20033;-59
2021/03/24 13:23:40;;;;;;;4.80;3.38;;;21.50;43.40;;;;;;5056510;28;20025;-60
2021/03/24 13:26:17;;;;;;;6.70;3.33;;;21.50;42.60;;;;;;5055362;28;20463;-59
2021/03/24 13:28:49;;;;;;;4.80;3.72;;;21.40;42.50;;;;;;5055780;28;20505;-59
2021/03/24 13:31:32;;;;;;;5.75;4.00;;;21.50;42.60;;;;;;5056128;28;20025;-59
2021/03/24 13:34:25;;;;;;;7.85;4.40;;;21.50;42.60;;;;;;5056214;28;20040;-59
2021/03/24 13:36:56;;;;;;;5.55;3.60;;;21.50;42.60;;;;;;5055975;28;20028;-60
2021/03/24 13:39:50;;;;;;;4.88;3.53;;;21.50;42.50;;;;;;5056043;28;20025;-57
2021/03/24 13:42:37;;;;;;;4.50;3.30;;;21.50;42.50;;;;;;5032138;28;20186;-56
2021/03/24 13:45:24;;;;;;;4.40;2.90;;;21.50;42.50;;;;;;5055693;28;20035;-58
2021/03/24 13:47:56;;;;;;;4.68;3.13;;;21.50;42.50;;;;;;5055931;28;20025;-59